createdAt,value
2023-02-19T10:40:02.918Z,3.9
2023-02-19T11:00:01.530Z,3.9
2023-02-19T12:50:01.617Z,2.3
2023-02-19T12:55:01.673Z,18.8
2023-02-19T13:00:01.552Z,23.0
2023-02-19T13:20:01.235Z,93.2
2023-02-19T13:40:01.710Z,89.8
2023-02-19T13:45:01.737Z,63.2
2023-02-19T13:50:01.588Z,46.2
2023-02-19T13:55:01.813Z,40.3
2023-02-19T14:10:01.338Z,62.8
2023-02-19T14:15:01.359Z,124.3
2023-02-19T14:30:02.052Z,104.4
2023-02-19T14:35:01.781Z,90.9
2023-02-19T14:40:01.663Z,80.4
2023-02-19T14:45:02.539Z,78.5
2023-02-19T14:50:01.640Z,80.7
2023-02-19T14:55:02.014Z,79.4
2023-02-19T15:00:01.714Z,88.1
2023-02-19T15:20:01.725Z,111.2
2023-02-19T15:25:02.051Z,93.0
2023-02-19T15:50:02.283Z,72.6
2023-02-19T15:55:01.568Z,71.7
2023-02-19T16:50:08.134Z,28.8
2023-02-19T16:55:01.560Z,38.0
2023-02-19T17:00:01.490Z,44.3
2023-02-19T17:05:01.890Z,54.7
2023-02-19T17:10:01.814Z,50.3
2023-02-19T17:25:01.917Z,20.8
2023-02-19T17:30:01.600Z,11.5
2023-02-19T17:35:01.839Z,9.5
2023-02-19T17:40:06.458Z,7.6
2023-02-19T17:45:01.519Z,10.5
2023-02-19T17:50:01.547Z,6.5
2023-02-19T17:55:01.617Z,5.4
2023-02-19T18:00:01.513Z,5.4
2023-02-19T18:05:01.583Z,5.8
2023-02-19T18:10:01.495Z,2.3
2023-02-19T18:15:01.553Z,2.0
2023-02-19T18:25:06.930Z,1.5
2023-02-19T18:40:01.495Z,0.5
2023-02-19T18:45:01.549Z,0.5
2023-02-19T19:40:02.003Z,2.2
2023-02-19T19:45:02.659Z,2.2
2023-02-19T20:05:03.012Z,1.1
2023-02-19T20:15:01.616Z,1.1
2023-02-19T21:50:04.761Z,4.8
2023-02-19T21:55:06.572Z,13.4
2023-02-19T22:00:01.793Z,13.9
2023-02-19T22:05:02.088Z,16.4
2023-02-19T22:20:02.860Z,18.2
2023-02-19T22:25:01.886Z,9.1
2023-02-19T22:30:06.905Z,6.1
2023-02-19T22:35:02.649Z,6.4
2023-02-19T22:40:02.119Z,7.2
2023-02-19T22:45:02.278Z,3.5
2023-02-19T22:55:03.268Z,14.3
2023-02-19T23:00:01.799Z,16.6
2023-02-19T23:05:01.893Z,14.8
2023-02-19T23:20:01.883Z,37.0
2023-02-19T23:25:01.853Z,18.5
2023-02-19T23:30:06.736Z,25.5
2023-02-19T23:35:04.599Z,19.6
2023-02-19T23:40:01.820Z,17.4
2023-02-19T23:45:01.783Z,10.8
2023-02-19T23:50:02.796Z,11.7
2023-02-19T23:55:06.861Z,8.6
